Time;durP1;ratioP1;P1;durP2;ratioP2;P2;SDS_P1;SDS_P2;PMS_P1;PMS_P2;Temp;Humidity;BMP_temperature;BMP_pressure;BME280_temperature;BME280_humidity;BME280_pressure;Samples;Min_cycle;Max_cycle;Signal;HPM_P1;HPM_P2
2021/08/10 00:00:30;;;;;;;9.70;4.40;;;12.30;74.40;;;;;;5057281;28;20027;-81
2021/08/10 00:03:00;;;;;;;10.48;4.10;;;12.30;74.60;;;;;;5059977;28;20024;-75
2021/08/10 00:05:26;;;;;;;7.68;3.85;;;12.30;74.80;;;;;;5061239;28;20789;-75
2021/08/10 00:07:53;;;;;;;8.90;3.67;;;12.30;74.80;;;;;;5059645;28;20016;-75
2021/08/10 00:10:19;;;;;;;16.30;5.53;;;12.30;74.80;;;;;;5061296;28;20020;-76
2021/08/10 00:12:46;;;;;;;11.20;3.88;;;12.30;74.60;;;;;;5057905;28;20799;-76
2021/08/10 00:15:12;;;;;;;15.93;5.32;;;12.30;74.60;;;;;;5063887;28;20040;-77
2021/08/10 00:17:39;;;;;;;15.18;4.45;;;12.30;74.50;;;;;;5058466;28;20028;-75
2021/08/10 00:20:06;;;;;;;14.52;5.07;;;12.30;74.40;;;;;;5060426;28;20472;-77
2021/08/10 00:22:33;;;;;;;8.52;4.32;;;12.40;74.50;;;;;;5060873;28;20025;-75
2021/08/10 00:24:59;;;;;;;17.70;4.85;;;12.30;74.40;;;;;;5060486;28;20009;-75
2021/08/10 00:27:26;;;;;;;18.85;5.60;;;12.30;74.40;;;;;;5060924;28;20013;-77
2021/08/10 00:29:52;;;;;;;12.80;5.18;;;12.30;74.40;;;;;;5059706;28;20435;-76
2021/08/10 00:32:19;;;;;;;15.13;6.13;;;12.20;74.30;;;;;;5059266;28;20021;-76
2021/08/10 00:34:45;;;;;;;13.32;5.70;;;12.30;74.30;;;;;;5061404;28;20060;-74
2021/08/10 00:37:12;;;;;;;16.38;4.85;;;12.20;74.20;;;;;;5062895;28;20021;-71
2021/08/10 00:39:38;;;;;;;20.55;4.85;;;12.20;73.90;;;;;;5061398;28;20099;-74
2021/08/10 00:42:08;;;;;;;15.75;6.35;;;12.20;73.90;;;;;;5060372;28;20457;-75
2021/08/10 00:44:35;;;;;;;8.40;3.75;;;12.20;73.90;;;;;;5060457;28;20058;-78
2021/08/10 00:47:01;;;;;;;17.85;4.53;;;12.20;73.90;;;;;;5059873;28;20285;-79
2021/08/10 00:49:28;;;;;;;17.80;5.90;;;12.20;73.90;;;;;;5062396;28;20441;-74
2021/08/10 00:51:55;;;;;;;7.97;4.28;;;12.10;73.50;;;;;;5062018;28;20017;-77
2021/08/10 00:54:21;;;;;;;12.90;4.72;;;12.10;73.40;;;;;;5061007;28;20052;-72
2021/08/10 00:56:48;;;;;;;11.23;4.38;;;12.20;73.20;;;;;;5058694;28;20063;-79
2021/08/10 00:59:14;;;;;;;16.70;4.88;;;12.10;73.00;;;;;;5059500;28;20506;-76
2021/08/10 01:01:41;;;;;;;10.52;4.53;;;12.10;72.80;;;;;;5063529;28;20020;-76
2021/08/10 01:04:08;;;;;;;12.93;4.25;;;12.10;72.80;;;;;;5058536;28;20077;-77
2021/08/10 01:07:05;;;;;;;10.40;3.95;;;12.10;72.70;;;;;;5059203;28;20032;-74
2021/08/10 01:09:52;;;;;;;11.18;4.05;;;12.10;72.60;;;;;;5057046;28;20021;-74
2021/08/10 01:12:37;;;;;;;10.65;3.80;;;12.10;72.60;;;;;;5058000;28;20376;-74
2021/08/10 01:15:14;;;;;;;13.45;4.32;;;12.00;72.60;;;;;;5058260;28;20508;-74
2021/08/10 01:17:52;;;;;;;10.43;4.28;;;12.00;72.60;;;;;;5059779;28;20040;-73
2021/08/10 01:20:40;;;;;;;11.00;4.53;;;12.00;72.70;;;;;;5059799;28;20154;-75
2021/08/10 01:23:11;;;;;;;12.20;4.47;;;12.00;72.80;;;;;;5050314;28;20061;-72
2021/08/10 01:26:19;;;;;;;8.23;4.10;;;12.00;72.60;;;;;;5056116;28;20512;-73
2021/08/10 01:28:52;;;;;;;10.98;4.38;;;12.00;72.50;;;;;;5049582;28;20086;-73
2021/08/10 01:31:32;;;;;;;11.45;3.63;;;12.00;72.40;;;;;;5057893;28;20020;-73
2021/08/10 01:34:09;;;;;;;10.10;4.03;;;11.90;72.60;;;;;;5059421;28;20024;-72
2021/08/10 01:36:38;;;;;;;10.90;5.25;;;11.90;72.60;;;;;;5057071;28;20435;-72
2021/08/10 01:39:05;;;;;;;15.48;4.10;;;11.90;72.60;;;;;;5057375;28;20020;-74
2021/08/10 01:41:32;;;;;;;10.63;4.22;;;11.90;72.50;;;;;;5058536;28;20024;-73
2021/08/10 01:44:00;;;;;;;11.23;3.38;;;11.80;72.40;;;;;;5058633;28;20020;-73
2021/08/10 01:46:28;;;;;;;10.10;3.97;;;11.80;72.70;;;;;;5061027;28;20021;-72
2021/08/10 01:48:56;;;;;;;8.48;3.78;;;11.70;72.60;;;;;;5057396;28;20484;-77
2021/08/10 01:51:26;;;;;;;7.00;3.70;;;11.70;72.60;;;;;;5061021;28;20021;-76
2021/08/10 01:53:53;;;;;;;6.22;3.08;;;11.70;72.60;;;;;;5059304;28;20037;-78
2021/08/10 01:56:20;;;;;;;12.95;3.75;;;11.70;72.50;;;;;;5056755;28;20020;-78
2021/08/10 01:58:48;;;;;;;9.55;4.05;;;11.70;72.50;;;;;;5054378;28;20416;-75
2021/08/10 02:01:16;;;;;;;12.07;4.57;;;11.60;72.60;;;;;;5053858;28;21526;-74
2021/08/10 02:03:44;;;;;;;9.35;3.92;;;11.60;72.60;;;;;;5053081;28;20105;-75
2021/08/10 02:06:15;;;;;;;8.90;3.08;;;11.60;72.90;;;;;;5053550;28;20476;-76
2021/08/10 02:08:42;;;;;;;10.15;3.60;;;11.60;73.20;;;;;;5053823;28;20047;-77
2021/08/10 02:11:11;;;;;;;9.77;3.42;;;11.60;73.20;;;;;;5054489;28;20013;-77
2021/08/10 02:13:38;;;;;;;6.35;3.25;;;11.60;73.10;;;;;;5052813;28;20025;-75
2021/08/10 02:16:08;;;;;;;8.20;3.17;;;11.60;73.00;;;;;;5059633;28;20401;-74
2021/08/10 02:18:36;;;;;;;14.05;3.53;;;11.60;72.80;;;;;;5042975;28;20068;-78
2021/08/10 02:21:06;;;;;;;8.50;3.10;;;11.60;72.90;;;;;;5059929;28;20029;-78
2021/08/10 02:23:33;;;;;;;8.45;3.28;;;11.50;73.10;;;;;;5056988;28;20032;-78
2021/08/10 02:26:02;;;;;;;12.55;3.25;;;11.50;73.20;;;;;;5054521;28;20005;-75
2021/08/10 02:28:30;;;;;;;6.53;2.53;;;11.50;73.00;;;;;;5042113;28;20028;-77
2021/08/10 02:30:59;;;;;;;8.77;3.45;;;11.50;72.80;;;;;;5055423;28;20017;-76
2021/08/10 02:33:26;;;;;;;10.82;3.42;;;11.50;72.60;;;;;;5054236;28;20048;-77
2021/08/10 02:35:59;;;;;;;7.88;3.60;;;11.50;72.80;;;;;;5055523;28;20385;-78
2021/08/10 02:38:28;;;;;;;11.88;2.65;;;11.50;72.90;;;;;;5057558;28;20392;-77
2021/08/10 02:40:57;;;;;;;13.85;3.90;;;11.50;73.00;;;;;;5059634;28;20012;-77
2021/08/10 02:43:31;;;;;;;5.65;3.78;;;11.50;72.80;;;;;;5056136;28;20029;-77
2021/08/10 02:45:58;;;;;;;4.13;2.22;;;11.40;72.60;;;;;;5055416;28;20020;-75
2021/08/10 02:48:31;;;;;;;12.43;3.03;;;11.50;72.60;;;;;;5051890;28;20128;-76
2021/08/10 02:50:58;;;;;;;5.55;2.42;;;11.50;72.70;;;;;;5057005;28;20021;-75
2021/08/10 02:53:24;;;;;;;10.55;3.90;;;11.40;72.70;;;;;;5056490;28;20108;-76
2021/08/10 02:56:24;;;;;;;6.32;2.80;;;11.40;72.70;;;;;;5051168;28;20044;-74
2021/08/10 02:59:17;;;;;;;9.18;3.63;;;11.40;72.60;;;;;;5054281;28;20036;-76
2021/08/10 03:01:52;;;;;;;4.53;1.73;;;11.40;72.40;;;;;;5057867;28;20375;-78
2021/08/10 03:04:23;;;;;;;4.65;1.77;;;11.40;72.60;;;;;;5056749;28;20075;-77
2021/08/10 03:06:54;;;;;;;9.23;2.45;;;11.40;72.70;;;;;;5054534;28;20024;-78
2021/08/10 03:09:23;;;;;;;6.60;3.22;;;11.30;72.90;;;;;;5054124;28;20043;-78
2021/08/10 03:11:53;;;;;;;5.70;2.22;;;11.30;73.20;;;;;;5054354;28;20020;-79
2021/08/10 03:14:23;;;;;;;11.10;3.33;;;11.30;72.90;;;;;;5050359;28;20012;-78
2021/08/10 03:16:51;;;;;;;6.70;2.08;;;11.30;72.70;;;;;;5061080;28;20021;-76
2021/08/10 03:19:21;;;;;;;7.28;2.38;;;11.30;72.70;;;;;;5057196;28;20040;-78
2021/08/10 03:21:48;;;;;;;6.15;2.05;;;11.20;72.70;;;;;;5048854;28;20422;-77
2021/08/10 03:24:15;;;;;;;7.90;1.70;;;11.20;73.00;;;;;;5058159;28;20107;-78
2021/08/10 03:26:43;;;;;;;5.00;1.67;;;11.10;73.50;;;;;;5059775;28;20127;-75
2021/08/10 03:29:11;;;;;;;2.20;1.23;;;11.10;73.60;;;;;;5058203;28;20039;-75
2021/08/10 03:31:39;;;;;;;3.85;1.70;;;11.10;73.80;;;;;;5052791;28;20025;-76
2021/08/10 03:34:07;;;;;;;7.60;2.15;;;11.10;73.90;;;;;;5064356;28;20512;-77
2021/08/10 03:36:34;;;;;;;8.40;3.47;;;11.00;74.30;;;;;;5055931;28;20055;-77
2021/08/10 03:39:00;;;;;;;8.63;2.22;;;10.90;74.60;;;;;;5062039;28;20035;-73
2021/08/10 03:41:27;;;;;;;7.43;2.15;;;10.90;74.90;;;;;;5056794;28;20021;-73
2021/08/10 03:43:55;;;;;;;6.00;2.30;;;10.90;75.40;;;;;;5059339;28;20030;-73
2021/08/10 03:46:22;;;;;;;5.47;2.20;;;10.90;75.30;;;;;;5058412;28;20553;-77
2021/08/10 03:48:49;;;;;;;8.27;2.22;;;10.80;75.10;;;;;;5056318;28;20056;-77
2021/08/10 03:51:16;;;;;;;7.00;2.03;;;10.80;75.30;;;;;;5059018;28;20013;-77
2021/08/10 03:53:43;;;;;;;5.38;2.35;;;10.70;75.50;;;;;;5055947;28;20719;-76
2021/08/10 03:56:12;;;;;;;6.88;2.60;;;10.70;75.80;;;;;;5058958;28;20028;-74
2021/08/10 03:58:41;;;;;;;4.85;2.72;;;10.70;75.90;;;;;;5057033;28;20052;-73
2021/08/10 04:01:08;;;;;;;3.35;2.40;;;10.60;76.00;;;;;;5061669;28;20063;-72
2021/08/10 04:03:37;;;;;;;5.57;2.10;;;10.60;76.10;;;;;;5054947;28;20026;-73
2021/08/10 04:06:06;;;;;;;4.90;2.15;;;10.60;76.30;;;;;;5058057;28;20145;-73
2021/08/10 04:08:33;;;;;;;14.90;7.35;;;10.60;76.20;;;;;;5055153;28;20044;-70
2021/08/10 04:11:00;;;;;;;26.67;17.60;;;10.50;76.70;;;;;;5055340;28;20028;-68
2021/08/10 04:13:29;;;;;;;27.40;18.27;;;10.60;76.50;;;;;;5057667;28;20051;-68
2021/08/10 04:15:59;;;;;;;8.30;5.25;;;10.60;76.20;;;;;;5056974;28;20016;-71
2021/08/10 04:18:25;;;;;;;4.35;2.53;;;10.50;76.20;;;;;;5059686;28;20041;-68
2021/08/10 04:20:53;;;;;;;5.13;2.53;;;10.50;76.40;;;;;;5052084;28;20021;-72
2021/08/10 04:23:20;;;;;;;26.92;14.88;;;10.50;76.60;;;;;;5056495;28;20044;-71
2021/08/10 04:25:47;;;;;;;24.35;13.73;;;10.60;76.50;;;;;;5056946;28;20542;-70
2021/08/10 04:28:14;;;;;;;7.47;3.67;;;10.60;76.10;;;;;;5054620;28;20108;-71
2021/08/10 04:30:42;;;;;;;5.68;2.35;;;10.50;76.90;;;;;;5054754;28;20029;-70
2021/08/10 04:33:09;;;;;;;7.07;3.20;;;10.50;76.40;;;;;;5052171;28;20020;-78
2021/08/10 04:35:36;;;;;;;16.08;2.05;;;10.40;76.40;;;;;;5051681;28;20031;-73
2021/08/10 04:38:03;;;;;;;6.72;1.98;;;10.40;76.70;;;;;;5051969;28;20033;-77
2021/08/10 04:40:30;;;;;;;5.95;3.03;;;10.40;77.00;;;;;;5044272;28;20460;-71
2021/08/10 04:42:58;;;;;;;7.07;4.55;;;10.30;77.20;;;;;;5052741;28;20028;-74
2021/08/10 04:45:25;;;;;;;7.20;3.63;;;10.30;77.30;;;;;;5050332;28;20804;-74
2021/08/10 04:47:54;;;;;;;6.80;3.58;;;10.20;77.30;;;;;;5045590;28;20415;-74
2021/08/10 04:50:21;;;;;;;25.33;17.13;;;10.20;77.30;;;;;;5041324;28;20470;-74
2021/08/10 04:52:48;;;;;;;12.02;7.55;;;10.20;77.70;;;;;;5053973;28;20032;-75
2021/08/10 04:55:15;;;;;;;3.88;2.45;;;10.20;77.60;;;;;;5055886;28;20534;-73
2021/08/10 04:57:42;;;;;;;4.55;2.17;;;10.20;77.70;;;;;;5060262;28;20048;-73
2021/08/10 05:00:09;;;;;;;5.90;1.75;;;10.20;77.70;;;;;;5062072;28;20017;-72
2021/08/10 05:02:42;;;;;;;4.57;1.48;;;10.10;77.60;;;;;;5058148;28;20029;-72
2021/08/10 05:05:09;;;;;;;4.57;1.88;;;10.10;77.50;;;;;;5060392;28;20475;-72
2021/08/10 05:07:38;;;;;;;4.03;2.05;;;10.10;77.70;;;;;;5056034;28;20032;-72
2021/08/10 05:10:05;;;;;;;3.28;1.65;;;10.10;77.60;;;;;;5053491;28;20025;-73
2021/08/10 05:12:34;;;;;;;3.47;1.75;;;10.10;76.80;;;;;;5059246;28;20100;-73
2021/08/10 05:15:01;;;;;;;7.63;2.85;;;10.00;77.20;;;;;;5058531;28;20001;-72
2021/08/10 05:17:31;;;;;;;7.15;2.53;;;10.00;76.80;;;;;;5059086;28;20946;-72
2021/08/10 05:19:57;;;;;;;9.25;2.15;;;10.00;77.00;;;;;;5059116;28;20032;-72
2021/08/10 05:22:25;;;;;;;4.25;1.90;;;9.90;77.00;;;;;;5061116;28;20039;-72
2021/08/10 05:24:52;;;;;;;3.55;2.72;;;10.00;77.20;;;;;;5058386;28;20025;-72
2021/08/10 05:27:18;;;;;;;4.32;1.98;;;10.00;77.00;;;;;;5057546;28;20055;-72
2021/08/10 05:29:45;;;;;;;5.50;2.28;;;9.90;77.10;;;;;;5058720;28;20468;-72
2021/08/10 05:32:11;;;;;;;7.45;2.65;;;9.90;77.30;;;;;;5057386;28;20112;-72
2021/08/10 05:34:38;;;;;;;6.70;3.00;;;9.80;77.10;;;;;;5059837;28;20029;-72
2021/08/10 05:37:06;;;;;;;5.60;2.40;;;9.80;77.50;;;;;;5054614;28;20063;-72
2021/08/10 05:39:32;;;;;;;6.60;3.45;;;9.80;78.10;;;;;;5058685;28;20060;-72
2021/08/10 05:41:59;;;;;;;11.45;2.90;;;9.80;78.00;;;;;;5060253;28;20679;-72
2021/08/10 05:44:25;;;;;;;4.43;3.13;;;9.80;77.90;;;;;;5053335;28;20028;-72
2021/08/10 05:46:53;;;;;;;9.82;3.25;;;9.80;78.50;;;;;;5060185;28;20095;-72
2021/08/10 05:49:20;;;;;;;4.63;3.00;;;9.80;78.70;;;;;;5056190;28;20061;-72
2021/08/10 05:51:46;;;;;;;9.95;2.83;;;9.80;78.80;;;;;;5058098;28;20132;-72
2021/08/10 05:54:13;;;;;;;5.22;2.60;;;9.80;78.70;;;;;;5055081;28;20044;-72
2021/08/10 05:56:40;;;;;;;9.07;2.70;;;9.80;79.00;;;;;;5057589;28;20031;-72
2021/08/10 05:59:09;;;;;;;11.70;2.63;;;9.80;79.10;;;;;;5052151;28;20032;-73
2021/08/10 06:01:38;;;;;;;7.22;2.42;;;9.80;79.10;;;;;;5061355;28;20029;-72
2021/08/10 06:04:07;;;;;;;5.68;2.60;;;9.80;79.40;;;;;;5055070;28;20111;-72
2021/08/10 06:06:35;;;;;;;8.27;3.50;;;9.80;79.50;;;;;;5057957;28;20029;-71
2021/08/10 06:09:03;;;;;;;6.57;2.78;;;9.80;79.90;;;;;;5059116;28;20024;-73
2021/08/10 06:11:30;;;;;;;8.60;3.70;;;9.80;80.00;;;;;;5050303;28;20036;-71
2021/08/10 06:13:57;;;;;;;7.43;3.00;;;9.90;79.90;;;;;;5053522;28;20120;-72
2021/08/10 06:16:24;;;;;;;9.15;3.88;;;9.90;80.10;;;;;;5053076;28;20074;-72
2021/08/10 06:18:51;;;;;;;9.93;4.10;;;9.90;80.30;;;;;;5052996;28;20029;-72
2021/08/10 06:21:17;;;;;;;11.38;3.65;;;9.90;80.30;;;;;;5060412;28;20021;-72
2021/08/10 06:23:44;;;;;;;10.75;4.85;;;10.00;80.50;;;;;;5060257;28;20134;-71
2021/08/10 06:26:11;;;;;;;10.57;5.40;;;10.00;80.60;;;;;;5051606;28;20074;-72
2021/08/10 06:28:37;;;;;;;12.13;3.30;;;10.00;80.80;;;;;;5057650;28;20164;-72
2021/08/10 06:31:05;;;;;;;9.73;3.78;;;10.00;80.90;;;;;;5060394;28;20017;-72
2021/08/10 06:33:32;;;;;;;16.48;5.15;;;10.10;81.10;;;;;;5054976;28;20032;-72
2021/08/10 06:35:59;;;;;;;20.33;5.90;;;10.10;81.20;;;;;;5059975;28;20101;-72
2021/08/10 06:38:25;;;;;;;12.77;7.15;;;10.10;81.20;;;;;;5059741;28;20113;-72
2021/08/10 06:40:52;;;;;;;13.60;8.95;;;10.20;81.40;;;;;;5056541;28;20142;-73
2021/08/10 06:43:18;;;;;;;19.63;10.00;;;10.20;82.00;;;;;;5054008;28;20064;-72
2021/08/10 06:45:45;;;;;;;20.10;8.98;;;10.20;81.50;;;;;;5054762;28;20056;-72
2021/08/10 06:48:11;;;;;;;27.83;7.47;;;10.30;81.70;;;;;;5057281;28;20151;-73
2021/08/10 06:50:38;;;;;;;13.10;6.35;;;10.30;82.10;;;;;;5054329;28;20115;-71
2021/08/10 06:53:04;;;;;;;10.77;5.85;;;10.40;82.10;;;;;;5053636;28;20480;-71
2021/08/10 06:55:31;;;;;;;11.88;6.28;;;10.50;82.20;;;;;;5059655;28;20063;-72
2021/08/10 06:57:59;;;;;;;10.90;6.18;;;10.50;82.20;;;;;;5056944;28;20455;-71
2021/08/10 07:00:26;;;;;;;10.07;6.20;;;10.60;82.20;;;;;;5064230;28;20496;-72
2021/08/10 07:02:52;;;;;;;13.75;5.10;;;10.60;82.20;;;;;;5059694;28;20557;-72
2021/08/10 07:05:20;;;;;;;7.47;4.05;;;10.70;82.40;;;;;;5059037;28;20039;-72
2021/08/10 07:07:46;;;;;;;17.48;4.88;;;10.70;83.00;;;;;;5057617;28;20017;-71
2021/08/10 07:10:13;;;;;;;13.63;5.43;;;10.70;82.50;;;;;;5062213;28;20048;-71
2021/08/10 07:12:39;;;;;;;16.05;5.40;;;10.80;82.70;;;;;;5054607;28;20383;-71
2021/08/10 07:15:06;;;;;;;12.55;6.15;;;10.90;82.80;;;;;;5060583;28;20025;-71
2021/08/10 07:17:33;;;;;;;15.80;7.13;;;11.00;82.70;;;;;;5056337;28;20041;-71
2021/08/10 07:20:39;;;;;;;14.70;7.57;;;11.10;82.60;;;;;;5059764;28;20023;-71
2021/08/10 07:23:45;;;;;;;16.83;5.93;;;11.10;82.40;;;;;;5046923;28;20021;-72
2021/08/10 07:26:52;;;;;;;11.20;7.13;;;11.20;82.40;;;;;;5057263;28;20021;-72
2021/08/10 07:30:00;;;;;;;10.02;5.57;;;11.30;82.40;;;;;;5054250;28;20020;-73
2021/08/10 07:33:06;;;;;;;21.75;6.72;;;11.40;82.10;;;;;;5059514;28;20051;-72
2021/08/10 07:36:12;;;;;;;19.83;6.50;;;11.50;82.00;;;;;;5055555;28;20092;-72
2021/08/10 07:39:18;;;;;;;24.80;6.55;;;11.60;82.00;;;;;;5053062;28;20032;-72
2021/08/10 07:42:25;;;;;;;16.27;6.07;;;11.60;81.60;;;;;;5062789;28;20019;-72
2021/08/10 07:45:31;;;;;;;25.02;8.52;;;11.60;81.20;;;;;;5053272;28;20083;-72
2021/08/10 07:48:37;;;;;;;24.20;8.48;;;11.70;81.40;;;;;;5051387;28;20357;-72
2021/08/10 07:51:43;;;;;;;31.60;10.57;;;11.80;82.10;;;;;;5054893;28;20487;-72
2021/08/10 07:54:49;;;;;;;22.52;8.15;;;11.80;82.20;;;;;;5072092;28;20494;-72
2021/08/10 07:57:55;;;;;;;14.13;7.40;;;11.90;81.60;;;;;;5054712;28;20017;-72
2021/08/10 08:01:01;;;;;;;11.75;6.97;;;12.00;81.40;;;;;;5060014;28;20078;-72
2021/08/10 08:04:08;;;;;;;15.63;5.95;;;12.10;81.50;;;;;;5061697;28;20070;-72
2021/08/10 08:07:14;;;;;;;11.23;5.00;;;12.20;80.50;;;;;;5058856;28;20020;-72
2021/08/10 08:10:20;;;;;;;13.00;4.63;;;12.20;80.30;;;;;;5070055;28;20136;-72
2021/08/10 08:13:26;;;;;;;13.93;5.97;;;12.40;80.10;;;;;;5051263;28;20071;-73
2021/08/10 08:16:32;;;;;;;9.77;4.65;;;12.30;79.40;;;;;;5058814;28;20017;-73
2021/08/10 08:19:38;;;;;;;15.30;4.63;;;12.40;79.50;;;;;;5057536;28;20122;-72
2021/08/10 08:22:44;;;;;;;17.88;4.78;;;12.50;79.90;;;;;;5058648;28;20017;-72
2021/08/10 08:25:50;;;;;;;12.52;5.50;;;12.60;80.20;;;;;;5055702;28;20383;-72
2021/08/10 08:28:56;;;;;;;8.05;3.78;;;12.60;80.00;;;;;;5059113;28;20048;-72
2021/08/10 08:32:02;;;;;;;12.80;2.10;;;12.80;79.70;;;;;;5061651;28;20020;-72
2021/08/10 08:35:09;;;;;;;3.50;1.58;;;12.90;79.00;;;;;;5054117;28;20044;-71
2021/08/10 08:38:15;;;;;;;3.33;0.70;;;13.00;76.30;;;;;;5052840;28;20060;-71
2021/08/10 08:41:24;;;;;;;1.92;0.95;;;13.20;75.00;;;;;;5057261;28;20016;-72
2021/08/10 08:44:35;;;;;;;5.82;1.25;;;13.30;74.20;;;;;;5056061;28;20738;-71
2021/08/10 08:47:44;;;;;;;3.65;0.80;;;13.40;73.00;;;;;;5055419;28;20435;-71
2021/08/10 08:50:51;;;;;;;2.90;1.27;;;13.50;71.40;;;;;;5062846;28;20384;-72
2021/08/10 08:53:57;;;;;;;3.97;1.25;;;13.60;70.40;;;;;;5044398;28;20083;-72
2021/08/10 08:57:03;;;;;;;3.65;1.30;;;13.70;70.40;;;;;;5058159;28;20032;-72
2021/08/10 09:00:09;;;;;;;5.97;2.58;;;13.90;70.50;;;;;;5059447;28;20475;-72
2021/08/10 09:03:15;;;;;;;5.30;2.45;;;13.90;69.50;;;;;;5057157;28;20021;-72
2021/08/10 09:06:24;;;;;;;4.00;1.25;;;14.10;69.50;;;;;;5056289;28;20485;-72
2021/08/10 09:09:45;;;;;;;5.68;1.23;;;14.20;69.10;;;;;;5058559;28;20012;-72
2021/08/10 09:12:53;;;;;;;6.68;1.88;;;14.30;69.10;;;;;;5059962;28;20047;-73
2021/08/10 09:16:20;;;;;;;5.03;1.52;;;14.40;67.30;;;;;;5054612;28;20462;-72
2021/08/10 09:19:26;;;;;;;4.30;2.17;;;14.50;66.70;;;;;;5056746;28;20036;-72
2021/08/10 09:22:34;;;;;;;3.80;1.98;;;14.60;66.50;;;;;;5059400;28;20028;-72
2021/08/10 09:25:40;;;;;;;5.95;1.38;;;14.70;66.20;;;;;;5056704;28;20384;-72
2021/08/10 09:28:47;;;;;;;4.07;1.30;;;14.80;65.20;;;;;;5059400;28;20510;-72
2021/08/10 09:31:32;;;;;;;4.85;1.38;;;14.90;64.50;;;;;;5052617;28;20115;-72
2021/08/10 09:34:41;;;;;;;7.40;1.38;;;15.00;64.50;;;;;;5061274;28;20375;-71
2021/08/10 09:37:47;;;;;;;6.50;2.80;;;15.10;64.00;;;;;;5053499;28;20024;-72
2021/08/10 09:41:08;;;;;;;1.92;1.27;;;15.20;63.40;;;;;;5055265;28;20013;-72
2021/08/10 09:44:06;;;;;;;4.95;1.25;;;15.40;63.60;;;;;;5055473;28;20043;-72
2021/08/10 09:47:13;;;;;;;4.25;1.27;;;15.50;62.00;;;;;;5053605;28;20008;-72
2021/08/10 09:50:26;;;;;;;3.55;1.17;;;15.60;62.90;;;;;;5056981;28;20024;-72
2021/08/10 09:53:38;;;;;;;5.75;1.88;;;15.80;62.00;;;;;;5056453;28;20017;-72
2021/08/10 09:56:49;;;;;;;2.28;1.23;;;15.90;60.40;;;;;;5058250;28;20032;-72
2021/08/10 10:00:00;;;;;;;2.80;1.23;;;16.00;60.00;;;;;;5059376;28;20027;-71
2021/08/10 10:03:02;;;;;;;;;;;16.10;59.80;;;;;;5051877;28;20039;-72
2021/08/10 10:06:08;;;;;;;3.73;1.20;;;16.30;59.70;;;;;;5055212;28;19919;-72
2021/08/10 10:09:14;;;;;;;4.28;1.33;;;16.40;57.40;;;;;;5057345;28;20341;-72
2021/08/10 10:12:22;;;;;;;2.47;1.05;;;16.50;57.80;;;;;;5058145;28;20016;-71
2021/08/10 10:15:28;;;;;;;5.40;1.58;;;16.70;58.00;;;;;;5049843;28;20032;-72
2021/08/10 10:18:35;;;;;;;8.57;1.80;;;16.80;57.70;;;;;;5060081;28;20121;-72
2021/08/10 10:21:24;;;;;;;;;;;16.90;56.80;;;;;;5056458;28;20525;-71
2021/08/10 10:24:30;;;;;;;4.82;1.88;;;16.90;57.00;;;;;;5058868;28;20395;-71
2021/08/10 10:27:39;;;;;;;4.70;1.60;;;17.00;56.00;;;;;;5061908;28;20025;-70
2021/08/10 10:30:49;;;;;;;6.63;1.50;;;17.10;55.80;;;;;;5051645;28;20152;-70
2021/08/10 10:33:55;;;;;;;7.25;1.17;;;17.20;55.70;;;;;;5059572;28;20012;-71
2021/08/10 10:37:02;;;;;;;2.78;1.55;;;17.40;54.90;;;;;;5051732;28;20129;-70
2021/08/10 10:40:17;;;;;;;7.55;1.23;;;17.50;54.90;;;;;;5048739;28;20033;-71
2021/08/10 10:43:23;;;;;;;7.05;2.15;;;17.60;54.30;;;;;;5052713;28;20021;-71
2021/08/10 10:46:29;;;;;;;5.95;1.45;;;17.70;53.00;;;;;;5049888;28;20621;-71
2021/08/10 10:49:36;;;;;;;6.80;1.60;;;17.70;53.00;;;;;;5051324;28;20056;-71
2021/08/10 10:52:44;;;;;;;4.78;1.80;;;17.80;52.60;;;;;;5051261;28;20013;-71
2021/08/10 10:55:51;;;;;;;5.65;1.55;;;17.90;52.20;;;;;;5050526;28;20640;-70
2021/08/10 10:59:03;;;;;;;2.80;1.15;;;18.00;52.40;;;;;;5054703;28;20033;-71
2021/08/10 11:02:12;;;;;;;2.95;1.52;;;18.10;51.20;;;;;;5049421;28;20032;-71
2021/08/10 11:05:28;;;;;;;6.07;1.20;;;18.10;50.30;;;;;;5052965;28;20025;-71
2021/08/10 11:08:33;;;;;;;5.15;1.58;;;18.30;51.00;;;;;;5049680;28;20017;-71
2021/08/10 11:11:38;;;;;;;7.57;1.33;;;18.40;51.00;;;;;;5045993;28;20061;-71
2021/08/10 11:14:39;;;;;;;7.30;2.10;;;18.50;50.40;;;;;;5057494;28;20016;-71
2021/08/10 11:17:09;;;;;;;8.80;2.70;;;18.60;50.50;;;;;;5058749;28;20441;-71
2021/08/10 11:20:15;;;;;;;8.13;2.63;;;18.70;53.40;;;;;;5057722;28;20032;-71
2021/08/10 11:23:23;;;;;;;7.38;1.88;;;18.70;54.00;;;;;;5052461;28;20017;-71
2021/08/10 11:26:13;;;;;;;8.57;2.55;;;18.70;53.70;;;;;;5057098;28;20472;-71
2021/08/10 11:28:51;;;;;;;7.82;2.33;;;18.70;53.70;;;;;;5054651;28;20024;-72
2021/08/10 11:32:10;;;;;;;6.72;2.53;;;18.80;52.30;;;;;;5058873;28;20448;-72
2021/08/10 11:35:16;;;;;;;6.90;3.03;;;18.80;53.10;;;;;;5056607;28;20438;-72
2021/08/10 11:38:05;;;;;;;7.00;2.05;;;18.80;52.60;;;;;;5052656;28;20550;-72
2021/08/10 11:40:54;;;;;;;5.78;2.38;;;18.80;53.00;;;;;;5057636;28;20018;-72
2021/08/10 11:44:00;;;;;;;8.57;2.28;;;18.80;53.90;;;;;;5051963;28;20036;-72
2021/08/10 11:46:53;;;;;;;5.50;2.00;;;18.70;53.80;;;;;;5061977;28;20059;-72
2021/08/10 11:49:59;;;;;;;4.88;1.80;;;18.80;54.00;;;;;;5060230;28;20563;-73
2021/08/10 11:53:05;;;;;;;9.93;2.25;;;18.90;53.90;;;;;;5060851;28;20032;-72
2021/08/10 11:56:11;;;;;;;6.70;2.45;;;19.00;52.50;;;;;;5057064;28;20044;-73
2021/08/10 11:59:26;;;;;;;9.82;2.38;;;18.90;52.40;;;;;;5057403;28;20033;-72
2021/08/10 12:02:32;;;;;;;3.92;2.35;;;18.90;52.70;;;;;;5056430;28;20039;-72
2021/08/10 12:05:38;;;;;;;8.20;2.28;;;19.00;52.40;;;;;;5058609;28;20088;-71
2021/08/10 12:08:44;;;;;;;7.38;2.67;;;19.10;52.40;;;;;;5056040;28;20514;-70
2021/08/10 12:11:50;;;;;;;7.55;2.17;;;19.00;53.80;;;;;;5060685;28;20130;-70
2021/08/10 12:14:56;;;;;;;6.93;1.60;;;19.10;54.00;;;;;;5058157;28;20442;-72
2021/08/10 12:18:14;;;;;;;9.82;2.90;;;19.20;53.50;;;;;;5055663;28;20029;-72
2021/08/10 12:21:20;;;;;;;8.65;2.47;;;19.20;52.70;;;;;;5061257;28;20051;-71
2021/08/10 12:24:27;;;;;;;8.60;2.05;;;19.20;51.80;;;;;;5058043;28;20033;-71
2021/08/10 12:27:33;;;;;;;7.38;2.58;;;19.20;52.10;;;;;;5062791;28;20028;-72
2021/08/10 12:30:39;;;;;;;6.78;2.35;;;19.30;51.90;;;;;;5056504;28;20071;-72
2021/08/10 12:33:57;;;;;;;7.88;2.08;;;19.40;52.90;;;;;;5057297;28;20031;-72
2021/08/10 12:37:09;;;;;;;5.35;2.00;;;19.30;50.80;;;;;;5062091;28;20565;-71
2021/08/10 12:40:18;;;;;;;4.75;2.22;;;19.20;50.90;;;;;;5056004;28;20499;-72
2021/08/10 12:43:25;;;;;;;4.68;1.95;;;19.20;51.70;;;;;;5055875;28;20024;-72
2021/08/10 12:46:45;;;;;;;6.85;2.10;;;19.20;52.00;;;;;;5057496;28;20017;-72
2021/08/10 12:50:03;;;;;;;4.80;1.90;;;19.20;51.70;;;;;;5055081;28;20480;-72
2021/08/10 12:53:19;;;;;;;9.73;2.03;;;19.20;51.10;;;;;;5057473;28;20025;-72
2021/08/10 12:56:28;;;;;;;7.75;2.03;;;19.30;51.60;;;;;;5059436;28;20054;-72
2021/08/10 12:59:34;;;;;;;5.72;1.63;;;19.30;51.30;;;;;;5058831;28;20057;-72
2021/08/10 13:02:58;;;;;;;4.57;1.85;;;19.30;50.50;;;;;;5068763;28;20387;-72
2021/08/10 13:06:04;;;;;;;8.10;2.20;;;19.20;50.60;;;;;;5051440;28;20036;-72
2021/08/10 13:09:13;;;;;;;5.60;2.13;;;19.20;50.60;;;;;;5045295;28;20376;-72
2021/08/10 13:12:28;;;;;;;5.05;1.67;;;19.20;52.20;;;;;;5057587;28;20032;-72
2021/08/10 13:15:34;;;;;;;3.70;2.15;;;19.20;51.70;;;;;;5054942;28;20024;-72
2021/08/10 13:18:40;;;;;;;5.57;1.48;;;19.30;51.30;;;;;;5072718;28;20123;-72
2021/08/10 13:21:46;;;;;;;9.13;2.15;;;19.30;51.20;;;;;;5054312;28;20557;-72
2021/08/10 13:24:52;;;;;;;6.13;1.70;;;19.30;51.80;;;;;;5056467;28;20027;-72
2021/08/10 13:28:08;;;;;;;9.00;2.33;;;19.30;51.60;;;;;;5064244;28;20019;-72
2021/08/10 13:31:29;;;;;;;6.80;1.77;;;19.20;51.30;;;;;;5055949;28;20020;-72
2021/08/10 13:34:35;;;;;;;3.15;1.33;;;19.30;51.60;;;;;;5051445;28;20065;-71
2021/08/10 13:37:41;;;;;;;13.88;2.40;;;19.20;51.90;;;;;;5055544;28;20018;-71
2021/08/10 13:40:47;;;;;;;4.22;1.35;;;19.20;52.40;;;;;;5053887;28;20048;-71
2021/08/10 13:43:54;;;;;;;6.47;2.03;;;19.20;52.30;;;;;;5053857;28;20032;-71
2021/08/10 13:47:00;;;;;;;8.38;1.67;;;19.20;51.90;;;;;;5047375;28;20091;-71
2021/08/10 13:50:06;;;;;;;9.65;2.45;;;19.20;52.50;;;;;;5058168;28;20043;-71
2021/08/10 13:53:13;;;;;;;7.05;2.10;;;19.20;53.40;;;;;;5053605;28;20091;-71
2021/08/10 13:56:19;;;;;;;2.85;2.03;;;19.10;53.20;;;;;;5055210;28;20108;-71
2021/08/10 13:59:25;;;;;;;6.88;2.92;;;19.20;54.20;;;;;;5056340;28;20028;-72
2021/08/10 14:02:32;;;;;;;6.07;2.45;;;19.20;53.00;;;;;;5054510;28;20433;-71
2021/08/10 14:05:38;;;;;;;8.68;3.60;;;19.20;53.30;;;;;;5045391;28;20029;-71
2021/08/10 14:08:47;;;;;;;7.85;3.53;;;19.20;53.00;;;;;;5058840;28;20048;-71
2021/08/10 14:11:53;;;;;;;10.35;3.55;;;19.30;52.70;;;;;;5053923;28;20025;-72
2021/08/10 14:14:19;;;;;;;6.20;2.70;;;19.20;52.90;;;;;;5049274;28;20032;-75
2021/08/10 14:17:25;;;;;;;9.20;2.88;;;19.20;53.40;;;;;;5044838;28;20033;-70